Alpha, Kentucky
Current Conditions -  °F | °C
As of 5:56 PM on Friday 31 Oct 2014 (Local Time) from KEKQ Reporting Station
Light Snow Light Snow  
Wind Chill: 30°   Ceiling: 1000
Heat Index: 38°   Visibility: 1.7mi
Dew Point: 37°   Wind: 14mph
Humidity: 96%   Direction: 320°NW
Pressure: 30.04"   Gusts: 20mph
Location:  36.77°N, 85.01°W
Report Text: KEKQ 312256Z AUTO 32012G17KT 1 3/4SM -SN BR FEW001 BKN010 OVC016 03/03 A3004 RMK AO2 T00330027 CIG 007V013 SNB48 P0007 SLP183
Loading
Personal Weather Stations






























Interactive Weather Map
Tropical Storm Tracking
New forecast layout! Learn more

10-Day Weather Forecast

Advertisements
Track Severe Weather on mobile